Time;durP1;ratioP1;P1;durP2;ratioP2;P2;SDS_P1;SDS_P2;PMS_P1;PMS_P2;Temp;Humidity;BMP_temperature;BMP_pressure;BME280_temperature;BME280_humidity;BME280_pressure;Samples;Min_cycle;Max_cycle;Signal;HPM_P1;HPM_P2
2022/03/26 00:00:10;;;;;;;6.93;2.58;;;10.30;61.10;;;;;;4988254;28;20046;-79
2022/03/26 00:02:37;;;;;;;5.30;2.42;;;10.30;61.20;;;;;;4958344;28;20054;-80
2022/03/26 00:05:05;;;;;;;5.15;2.42;;;10.20;61.10;;;;;;4988685;28;20465;-79
2022/03/26 00:07:32;;;;;;;6.00;3.17;;;10.20;61.20;;;;;;4967675;28;20148;-78
2022/03/26 00:09:59;;;;;;;5.95;3.05;;;10.20;61.90;;;;;;4991424;28;20502;-78
2022/03/26 00:12:26;;;;;;;7.50;2.78;;;10.20;61.30;;;;;;4973905;28;20085;-78
2022/03/26 00:14:53;;;;;;;7.85;3.28;;;10.20;61.30;;;;;;4957046;28;20105;-78
2022/03/26 00:17:20;;;;;;;7.63;3.08;;;10.20;61.40;;;;;;4943410;28;20050;-78
2022/03/26 00:19:47;;;;;;;5.45;2.45;;;10.20;61.50;;;;;;4958263;28;20046;-79
2022/03/26 00:22:14;;;;;;;7.95;2.67;;;10.20;61.50;;;;;;4952901;28;20047;-78
2022/03/26 00:24:41;;;;;;;6.07;2.53;;;10.10;61.60;;;;;;4972415;28;20050;-78
2022/03/26 00:27:09;;;;;;;5.55;2.75;;;10.10;61.60;;;;;;4973710;28;20065;-78
2022/03/26 00:29:36;;;;;;;7.97;2.60;;;10.10;61.60;;;;;;4975939;28;20097;-78
2022/03/26 00:32:04;;;;;;;6.63;3.05;;;10.10;61.80;;;;;;4994597;28;20121;-79
2022/03/26 00:34:32;;;;;;;8.25;3.00;;;10.10;61.90;;;;;;4960160;28;20044;-78
2022/03/26 00:36:59;;;;;;;6.63;3.35;;;10.10;61.90;;;;;;4961075;28;20064;-79
2022/03/26 00:39:27;;;;;;;4.80;2.40;;;10.00;61.90;;;;;;4961235;28;20046;-78
2022/03/26 00:41:54;;;;;;;5.40;2.25;;;10.00;62.10;;;;;;4977389;28;20050;-78
2022/03/26 00:44:21;;;;;;;4.72;2.53;;;10.00;62.30;;;;;;4967915;28;20105;-78
2022/03/26 00:46:49;;;;;;;4.72;2.33;;;9.90;62.20;;;;;;4961787;28;20564;-78
2022/03/26 00:49:17;;;;;;;6.22;2.83;;;9.90;62.40;;;;;;4961506;28;20057;-78
2022/03/26 00:51:45;;;;;;;6.43;2.88;;;9.90;62.40;;;;;;4977381;28;20573;-77
2022/03/26 00:54:12;;;;;;;5.63;2.85;;;9.90;62.40;;;;;;4959887;28;20046;-78
2022/03/26 00:56:41;;;;;;;8.13;3.55;;;9.90;62.50;;;;;;4969893;28;20058;-78
2022/03/26 00:59:08;;;;;;;6.03;2.83;;;9.90;62.60;;;;;;4974502;28;20054;-78
2022/03/26 01:01:37;;;;;;;8.85;3.75;;;9.80;62.60;;;;;;5031925;28;20765;-78
2022/03/26 01:04:05;;;;;;;9.35;3.92;;;9.80;63.40;;;;;;5000248;28;20064;-79
2022/03/26 01:06:32;;;;;;;7.53;3.63;;;9.80;62.80;;;;;;5002733;28;20049;-78
2022/03/26 01:08:59;;;;;;;10.02;4.28;;;9.80;62.90;;;;;;5012274;28;20042;-79
2022/03/26 01:11:26;;;;;;;8.23;3.95;;;9.70;62.90;;;;;;4987783;28;20391;-79
2022/03/26 01:13:56;;;;;;;8.48;3.55;;;9.70;63.00;;;;;;4984104;28;20057;-78
2022/03/26 01:16:24;;;;;;;8.93;4.65;;;9.70;63.10;;;;;;5002088;28;20049;-78
2022/03/26 01:18:52;;;;;;;10.23;4.22;;;9.60;63.30;;;;;;4981639;28;20050;-78
2022/03/26 01:21:20;;;;;;;9.57;4.10;;;9.60;63.30;;;;;;5007414;28;20127;-79
2022/03/26 01:23:47;;;;;;;8.18;4.15;;;9.60;63.40;;;;;;5008967;28;20050;-79
2022/03/26 01:26:17;;;;;;;10.82;5.50;;;9.50;63.50;;;;;;4993763;28;20046;-78
2022/03/26 01:28:44;;;;;;;9.75;4.63;;;9.50;63.60;;;;;;5035328;28;20513;-78
2022/03/26 01:31:12;;;;;;;7.18;3.65;;;9.40;63.60;;;;;;5008172;28;20033;-79
2022/03/26 01:33:39;;;;;;;7.78;3.72;;;9.40;63.80;;;;;;5011388;28;20050;-78
2022/03/26 01:36:08;;;;;;;7.85;3.53;;;9.40;63.80;;;;;;4964247;28;20101;-78
2022/03/26 01:38:36;;;;;;;7.30;3.75;;;9.40;64.10;;;;;;5005294;28;20049;-78
2022/03/26 01:41:03;;;;;;;9.77;4.57;;;9.40;64.00;;;;;;5013219;28;20042;-79
2022/03/26 01:43:30;;;;;;;9.75;4.20;;;9.30;64.00;;;;;;4964407;28;20104;-78
2022/03/26 01:45:57;;;;;;;9.20;3.88;;;9.30;64.10;;;;;;4987896;28;20053;-79
2022/03/26 01:48:25;;;;;;;7.93;4.15;;;9.30;64.20;;;;;;4996318;28;20037;-79
2022/03/26 01:50:53;;;;;;;7.25;3.75;;;9.30;64.20;;;;;;4962895;28;20069;-79
2022/03/26 01:53:20;;;;;;;6.35;3.17;;;9.20;64.20;;;;;;4993418;28;20046;-79
2022/03/26 01:55:49;;;;;;;7.57;3.78;;;9.20;64.30;;;;;;4976638;28;20038;-79
2022/03/26 01:58:16;;;;;;;6.00;3.15;;;9.20;64.40;;;;;;5002569;28;20065;-78
2022/03/26 02:00:45;;;;;;;5.88;2.47;;;9.20;65.10;;;;;;5006905;28;20068;-79
2022/03/26 02:03:12;;;;;;;6.93;3.00;;;9.10;64.50;;;;;;4986639;28;20442;-79
2022/03/26 02:05:39;;;;;;;7.80;3.78;;;9.10;64.60;;;;;;5001326;28;20049;-79
2022/03/26 02:08:06;;;;;;;6.95;3.28;;;9.10;64.70;;;;;;4984566;28;20054;-79
2022/03/26 02:10:33;;;;;;;9.02;4.22;;;9.10;65.40;;;;;;4966885;28;20038;-79
2022/03/26 02:13:02;;;;;;;12.85;5.03;;;9.10;64.80;;;;;;5000775;28;20064;-79
2022/03/26 02:15:30;;;;;;;9.65;4.80;;;9.10;65.40;;;;;;5000059;28;20132;-79
2022/03/26 02:17:57;;;;;;;12.13;5.68;;;9.10;64.70;;;;;;4988521;28;20053;-80
2022/03/26 02:20:24;;;;;;;10.07;4.13;;;9.00;64.70;;;;;;4967208;28;20046;-79
2022/03/26 02:22:51;;;;;;;9.57;4.57;;;9.00;64.80;;;;;;4994618;28;20069;-79
2022/03/26 02:25:19;;;;;;;8.07;3.42;;;9.00;64.80;;;;;;4992294;28;20042;-78
2022/03/26 02:27:45;;;;;;;9.65;4.38;;;9.00;64.90;;;;;;4976734;28;20046;-79
2022/03/26 02:30:13;;;;;;;10.02;4.70;;;9.00;65.00;;;;;;4987097;28;20065;-79
2022/03/26 02:32:40;;;;;;;11.45;6.68;;;9.00;65.10;;;;;;5006315;28;20548;-79
2022/03/26 02:35:08;;;;;;;13.90;6.47;;;8.90;65.10;;;;;;4963270;28;20541;-79
2022/03/26 02:37:35;;;;;;;11.73;5.47;;;8.90;65.10;;;;;;5002310;28;20516;-80
2022/03/26 02:40:06;;;;;;;13.25;5.60;;;9.00;65.10;;;;;;4958980;28;20417;-80
2022/03/26 02:42:37;;;;;;;10.48;5.20;;;8.90;65.00;;;;;;4993400;28;20119;-80
2022/03/26 02:45:06;;;;;;;9.90;4.55;;;8.90;65.00;;;;;;5009136;28;20524;-80
2022/03/26 02:47:33;;;;;;;10.25;4.60;;;8.80;65.00;;;;;;5014435;28;20046;-80
2022/03/26 02:50:00;;;;;;;8.27;4.30;;;8.80;65.10;;;;;;4999047;28;20042;-80
2022/03/26 02:52:27;;;;;;;8.48;4.03;;;8.80;65.30;;;;;;4979892;28;20042;-80
2022/03/26 02:54:54;;;;;;;7.15;3.30;;;8.70;65.50;;;;;;4980449;28;20092;-80
2022/03/26 02:57:21;;;;;;;7.63;3.72;;;8.70;65.50;;;;;;4973571;28;20046;-80
2022/03/26 02:59:49;;;;;;;9.18;3.88;;;8.70;65.70;;;;;;4985060;28;20065;-80
2022/03/26 03:02:16;;;;;;;7.57;3.40;;;8.60;65.60;;;;;;4982999;28;20137;-80
2022/03/26 03:04:47;;;;;;;7.47;3.38;;;8.60;65.70;;;;;;5033522;28;20054;-81
2022/03/26 03:07:16;;;;;;;6.57;3.20;;;8.60;66.30;;;;;;4989626;28;20037;-80
2022/03/26 03:09:43;;;;;;;8.05;4.07;;;8.60;65.70;;;;;;4984946;28;20056;-80
2022/03/26 03:12:10;;;;;;;7.57;3.40;;;8.60;65.70;;;;;;4992243;28;20038;-78
2022/03/26 03:14:38;;;;;;;7.35;3.58;;;8.50;65.70;;;;;;4971742;28;20057;-78
2022/03/26 03:17:05;;;;;;;9.20;4.30;;;8.50;65.70;;;;;;4962652;28;20057;-78
2022/03/26 03:19:32;;;;;;;8.73;4.22;;;8.50;65.80;;;;;;5006414;28;20490;-79
2022/03/26 03:22:03;;;;;;;8.35;3.65;;;8.50;65.80;;;;;;5010745;28;20038;-78
2022/03/26 03:24:31;;;;;;;8.85;4.18;;;8.50;65.80;;;;;;5000021;28;20069;-79
2022/03/26 03:26:58;;;;;;;9.20;3.70;;;8.50;65.70;;;;;;4984954;28;20446;-79
2022/03/26 03:29:25;;;;;;;8.43;4.03;;;8.50;65.70;;;;;;4987622;28;20069;-79
2022/03/26 03:31:52;;;;;;;8.48;3.75;;;8.50;65.70;;;;;;5000276;28;20054;-78
2022/03/26 03:34:20;;;;;;;9.45;5.10;;;8.50;65.70;;;;;;4973640;28;20042;-78
2022/03/26 03:36:47;;;;;;;11.57;4.82;;;8.50;65.70;;;;;;5013114;28;20050;-79
2022/03/26 03:39:16;;;;;;;9.00;4.00;;;8.50;65.70;;;;;;4984960;28;20510;-80
2022/03/26 03:41:43;;;;;;;8.95;4.32;;;8.50;65.70;;;;;;4980075;28;20054;-79
2022/03/26 03:44:11;;;;;;;9.20;4.35;;;8.50;65.60;;;;;;4970544;28;20056;-79
2022/03/26 03:46:38;;;;;;;10.95;4.40;;;8.50;65.60;;;;;;5006945;28;20054;-80
2022/03/26 03:49:05;;;;;;;13.20;5.80;;;8.50;65.70;;;;;;4983600;28;20070;-80
2022/03/26 03:51:32;;;;;;;11.95;5.70;;;8.50;65.70;;;;;;4972340;28;20065;-79
2022/03/26 03:53:59;;;;;;;10.18;5.15;;;8.50;65.60;;;;;;4971819;28;20136;-79
2022/03/26 03:56:26;;;;;;;10.77;6.00;;;8.50;65.60;;;;;;5002899;28;20505;-79
2022/03/26 03:58:54;;;;;;;10.50;5.15;;;8.40;65.60;;;;;;4966486;28;20073;-79
2022/03/26 04:01:21;;;;;;;9.63;4.25;;;8.40;65.70;;;;;;4977527;28;20050;-79
2022/03/26 04:03:48;;;;;;;10.57;5.45;;;8.40;65.90;;;;;;4981126;28;20069;-79
2022/03/26 04:06:15;;;;;;;9.63;4.68;;;8.30;66.00;;;;;;5008377;28;20060;-80
2022/03/26 04:08:42;;;;;;;13.75;5.03;;;8.30;66.10;;;;;;4968764;28;20130;-80
2022/03/26 04:11:10;;;;;;;8.57;4.60;;;8.30;66.20;;;;;;5007313;28;20050;-80
2022/03/26 04:13:38;;;;;;;10.40;4.50;;;8.30;66.30;;;;;;5008702;28;20049;-80
2022/03/26 04:16:05;;;;;;;10.18;5.53;;;8.30;66.30;;;;;;4979629;28;20429;-80
2022/03/26 04:18:32;;;;;;;13.77;6.57;;;8.30;66.30;;;;;;5002998;28;20074;-80
2022/03/26 04:20:59;;;;;;;13.55;5.95;;;8.30;66.20;;;;;;4994023;28;20046;-80
2022/03/26 04:23:26;;;;;;;13.45;6.65;;;8.30;66.10;;;;;;5000505;28;20593;-80
2022/03/26 04:25:53;;;;;;;12.88;6.57;;;8.40;66.20;;;;;;4979319;28;20060;-79
2022/03/26 04:28:20;;;;;;;15.27;7.15;;;8.40;66.10;;;;;;4974340;28;20209;-79
2022/03/26 04:30:47;;;;;;;13.60;7.35;;;8.40;66.20;;;;;;4988139;28;20195;-79
2022/03/26 04:33:15;;;;;;;16.58;7.50;;;8.40;66.20;;;;;;4990173;28;20070;-79
2022/03/26 04:35:42;;;;;;;16.90;8.13;;;8.40;66.30;;;;;;5013031;28;20046;-79
2022/03/26 04:38:09;;;;;;;14.35;7.53;;;8.40;66.40;;;;;;4994336;28;20038;-79
2022/03/26 04:40:37;;;;;;;13.43;7.30;;;8.30;66.40;;;;;;4998260;28;20046;-79
2022/03/26 04:43:05;;;;;;;14.13;7.43;;;8.30;66.50;;;;;;4991729;28;20042;-79
2022/03/26 04:45:33;;;;;;;12.43;6.22;;;8.20;66.60;;;;;;4990281;28;20057;-80
2022/03/26 04:48:00;;;;;;;12.25;5.95;;;8.20;66.90;;;;;;4991403;28;20109;-79
2022/03/26 04:50:28;;;;;;;14.77;6.40;;;8.10;67.10;;;;;;5001499;28;20042;-79
2022/03/26 04:52:55;;;;;;;12.07;5.90;;;8.10;67.20;;;;;;4989875;28;20092;-80
2022/03/26 04:55:22;;;;;;;11.55;6.50;;;8.00;67.40;;;;;;4989886;28;20481;-79
2022/03/26 04:57:50;;;;;;;13.00;5.57;;;7.90;67.50;;;;;;4979793;28;20510;-80
2022/03/26 05:00:19;;;;;;;12.07;5.55;;;7.90;67.70;;;;;;5012097;28;20062;-80
2022/03/26 05:02:46;;;;;;;11.60;5.90;;;7.80;67.70;;;;;;4980302;28;20093;-80
2022/03/26 05:05:14;;;;;;;11.45;5.47;;;7.70;67.80;;;;;;5004044;28;20627;-80
2022/03/26 05:07:47;;;;;;;10.50;4.93;;;7.70;68.00;;;;;;4986888;28;20466;-80
2022/03/26 05:10:22;;;;;;;10.43;5.53;;;7.60;68.10;;;;;;4985881;28;20113;-80
2022/03/26 05:12:51;;;;;;;12.88;5.70;;;7.60;68.30;;;;;;5007689;28;20045;-80
2022/03/26 05:15:21;;;;;;;13.23;5.57;;;7.50;68.50;;;;;;4991270;28;20121;-79
2022/03/26 05:17:49;;;;;;;10.65;5.40;;;7.40;68.60;;;;;;5013526;28;20056;-80
2022/03/26 05:20:18;;;;;;;11.85;5.45;;;7.40;68.70;;;;;;4993520;28;20057;-79
2022/03/26 05:22:49;;;;;;;10.13;5.10;;;7.40;68.80;;;;;;5005977;28;20053;-79
2022/03/26 05:25:17;;;;;;;13.23;5.88;;;7.30;68.90;;;;;;4995047;28;20069;-80
2022/03/26 05:27:50;;;;;;;13.02;6.05;;;7.20;69.00;;;;;;4995626;28;20053;-79
2022/03/26 05:30:22;;;;;;;12.93;6.47;;;7.20;69.10;;;;;;4995280;28;20053;-79
2022/03/26 05:32:49;;;;;;;11.43;5.53;;;7.10;69.20;;;;;;5017540;28;20138;-79
2022/03/26 05:35:16;;;;;;;12.95;5.15;;;7.10;69.30;;;;;;4966022;28;20121;-79
2022/03/26 05:37:50;;;;;;;13.07;5.75;;;7.10;69.40;;;;;;5003878;28;20141;-79
2022/03/26 05:40:21;;;;;;;12.90;5.97;;;7.10;69.50;;;;;;5004978;28;20042;-80
2022/03/26 05:42:49;;;;;;;12.60;5.70;;;7.00;69.50;;;;;;5012094;28;20061;-79
2022/03/26 05:45:17;;;;;;;11.90;5.35;;;7.00;69.60;;;;;;4994552;28;20053;-79
2022/03/26 05:47:55;;;;;;;12.93;6.47;;;7.00;69.70;;;;;;5041083;28;20042;-79
2022/03/26 05:50:22;;;;;;;10.85;4.53;;;7.00;69.70;;;;;;5003073;28;20132;-79
2022/03/26 05:52:49;;;;;;;11.48;5.50;;;7.00;69.80;;;;;;5000848;28;20112;-79
2022/03/26 05:55:16;;;;;;;10.20;5.25;;;7.00;69.80;;;;;;4986094;28;20486;-79
2022/03/26 05:57:45;;;;;;;12.07;5.15;;;7.00;69.90;;;;;;5010100;28;20045;-79
2022/03/26 06:00:14;;;;;;;11.20;6.15;;;6.90;69.90;;;;;;4966912;28;20054;-79
2022/03/26 06:02:43;;;;;;;9.50;4.55;;;6.90;70.00;;;;;;4991231;28;20078;-79
2022/03/26 06:05:11;;;;;;;11.80;5.60;;;7.00;70.10;;;;;;4974810;28;20471;-79
2022/03/26 06:07:38;;;;;;;11.60;5.85;;;7.00;70.10;;;;;;4979938;28;20050;-79
2022/03/26 06:10:05;;;;;;;14.45;6.43;;;7.00;70.10;;;;;;4969391;28;20137;-79
2022/03/26 06:12:32;;;;;;;13.57;6.05;;;7.00;70.10;;;;;;4985968;28;20076;-78
2022/03/26 06:14:59;;;;;;;12.10;6.38;;;7.00;70.10;;;;;;5001825;28;20034;-79
2022/03/26 06:17:26;;;;;;;11.32;5.45;;;7.00;70.10;;;;;;4958623;28;20105;-79
2022/03/26 06:19:53;;;;;;;15.55;6.15;;;7.10;70.20;;;;;;4975362;28;20134;-80
2022/03/26 06:22:20;;;;;;;11.23;6.28;;;7.20;70.20;;;;;;4971332;28;20502;-79
2022/03/26 06:24:48;;;;;;;10.70;5.70;;;7.20;70.10;;;;;;4988270;28;20092;-79
2022/03/26 06:27:15;;;;;;;10.60;4.90;;;7.30;70.10;;;;;;5006938;28;20116;-79
2022/03/26 06:29:43;;;;;;;11.05;5.80;;;7.40;70.00;;;;;;4976861;28;20058;-79
2022/03/26 06:32:10;;;;;;;13.80;5.82;;;7.40;70.00;;;;;;4969943;28;20034;-80
2022/03/26 06:34:37;;;;;;;10.30;5.18;;;7.50;69.90;;;;;;4991223;28;20053;-79
2022/03/26 06:37:05;;;;;;;11.65;5.03;;;7.60;69.90;;;;;;5001666;28;20046;-80
2022/03/26 06:39:32;;;;;;;12.05;4.97;;;7.70;69.90;;;;;;4975330;28;20509;-80
2022/03/26 06:41:59;;;;;;;10.50;5.03;;;7.70;69.90;;;;;;4962232;28;20074;-79
2022/03/26 06:44:26;;;;;;;10.60;4.75;;;7.80;69.80;;;;;;4977906;28;20096;-80
2022/03/26 06:46:53;;;;;;;8.82;4.32;;;7.90;69.70;;;;;;4990637;28;20057;-80
2022/03/26 06:49:20;;;;;;;9.55;4.78;;;8.00;69.70;;;;;;4975554;28;20451;-80
2022/03/26 06:51:47;;;;;;;9.25;4.28;;;8.10;69.60;;;;;;4977662;28;20098;-79
2022/03/26 06:54:15;;;;;;;8.13;4.05;;;8.30;69.60;;;;;;4991425;28;20038;-80
2022/03/26 06:56:42;;;;;;;9.95;5.10;;;8.30;69.50;;;;;;4974465;28;20061;-81
2022/03/26 06:59:17;;;;;;;9.90;4.90;;;8.50;69.40;;;;;;4992722;28;20470;-81
2022/03/26 07:01:45;;;;;;;9.30;4.25;;;8.60;69.30;;;;;;4974736;28;20079;-82
2022/03/26 07:04:17;;;;;;;9.45;4.15;;;8.70;69.20;;;;;;4965789;28;20537;-82
2022/03/26 07:06:46;;;;;;;8.90;4.68;;;8.80;69.00;;;;;;4958754;28;20141;-81
2022/03/26 07:09:16;;;;;;;10.68;4.28;;;8.90;68.90;;;;;;4955805;28;20043;-82
2022/03/26 07:11:46;;;;;;;10.30;4.85;;;9.10;68.80;;;;;;4966809;28;20494;-83
2022/03/26 07:14:17;;;;;;;8.50;4.82;;;9.20;68.70;;;;;;4943269;28;20046;-83
2022/03/26 07:16:44;;;;;;;10.65;4.35;;;9.30;68.60;;;;;;4957453;28;20125;-83
2022/03/26 07:19:12;;;;;;;11.05;5.47;;;9.40;68.60;;;;;;4958919;28;20038;-82
2022/03/26 07:21:40;;;;;;;9.05;4.55;;;9.50;68.30;;;;;;4964256;28;20054;-82
2022/03/26 07:24:09;;;;;;;8.90;5.13;;;9.60;68.20;;;;;;4974363;28;20068;-82
2022/03/26 07:26:37;;;;;;;9.63;4.53;;;9.70;68.10;;;;;;4981899;28;20034;-82
2022/03/26 07:29:04;;;;;;;9.98;5.10;;;9.80;67.90;;;;;;4957247;28;20525;-83
2022/03/26 07:31:31;;;;;;;8.88;4.15;;;10.00;67.90;;;;;;4974667;28;20061;-84
2022/03/26 07:33:58;;;;;;;8.93;4.40;;;10.10;67.70;;;;;;4958238;28;20821;-83
2022/03/26 07:36:26;;;;;;;9.45;4.15;;;10.20;67.60;;;;;;4973906;28;20096;-83
2022/03/26 07:39:02;;;;;;;9.30;4.82;;;10.30;67.50;;;;;;4963368;28;20057;-83
2022/03/26 07:41:30;;;;;;;9.65;4.18;;;10.40;67.30;;;;;;4984384;28;20054;-83
2022/03/26 07:43:57;;;;;;;9.52;4.82;;;10.50;67.20;;;;;;4957410;28;20065;-83
2022/03/26 07:46:25;;;;;;;9.30;4.63;;;10.60;67.70;;;;;;4952786;28;20050;-81
2022/03/26 07:49:00;;;;;;;10.55;4.32;;;10.70;67.60;;;;;;4956086;28;20058;-81
2022/03/26 07:51:27;;;;;;;10.57;4.30;;;10.80;66.90;;;;;;4946979;28;20047;-90
2022/03/26 07:58:47;;;;;;;7.15;3.47;;;11.00;66.50;;;;;;4993090;28;20123;-82
2022/03/26 08:01:16;;;;;;;8.90;4.05;;;11.10;66.40;;;;;;4964693;28;20119;-81
2022/03/26 08:03:49;;;;;;;9.25;4.15;;;11.20;66.70;;;;;;4970217;28;20498;-82
2022/03/26 08:06:21;;;;;;;8.30;4.10;;;11.30;66.20;;;;;;4957731;28;20056;-82
2022/03/26 08:08:51;;;;;;;10.98;4.53;;;11.40;66.10;;;;;;4958349;28;20434;-80
2022/03/26 08:11:19;;;;;;;9.68;4.32;;;11.60;65.90;;;;;;4958024;28;20137;-80
2022/03/26 08:13:46;;;;;;;10.48;4.93;;;11.60;65.80;;;;;;4957855;28;20065;-80
2022/03/26 08:16:13;;;;;;;9.60;4.35;;;11.80;65.80;;;;;;4952173;28;20039;-82
2022/03/26 08:18:41;;;;;;;10.48;3.97;;;11.80;65.50;;;;;;4990472;28;20486;-81
2022/03/26 08:21:11;;;;;;;11.32;5.00;;;11.90;65.50;;;;;;4958319;28;20042;-83
2022/03/26 08:23:39;;;;;;;8.85;4.40;;;12.00;65.30;;;;;;4974023;28;20052;-81
2022/03/26 08:26:22;;;;;;;10.93;5.15;;;12.10;65.20;;;;;;4957182;28;20408;-81
2022/03/26 08:28:51;;;;;;;9.38;4.13;;;12.30;65.10;;;;;;4985064;28;20077;-82
2022/03/26 08:31:26;;;;;;;11.25;4.63;;;12.30;65.10;;;;;;4983994;28;20052;-86
2022/03/26 08:33:54;;;;;;;9.65;4.75;;;12.40;64.90;;;;;;4967850;28;20097;-81
2022/03/26 08:36:26;;;;;;;9.98;4.60;;;12.50;64.80;;;;;;4973771;28;20042;-82
2022/03/26 08:38:53;;;;;;;8.77;3.95;;;12.60;64.70;;;;;;4978573;28;20502;-83
2022/03/26 08:41:23;;;;;;;10.68;4.35;;;12.60;64.50;;;;;;4965810;28;20046;-84
2022/03/26 08:43:51;;;;;;;10.57;4.97;;;12.70;64.50;;;;;;4962411;28;20058;-86
2022/03/26 08:46:23;;;;;;;14.50;6.40;;;12.80;64.40;;;;;;4956703;28;20081;-83
2022/03/26 08:48:54;;;;;;;12.75;6.50;;;12.80;64.10;;;;;;4957681;28;20074;-83
2022/03/26 08:51:30;;;;;;;11.98;5.97;;;12.90;64.00;;;;;;4986504;28;20069;-85
2022/03/26 08:53:58;;;;;;;12.73;5.88;;;13.00;63.80;;;;;;4977027;28;20051;-86
2022/03/26 08:56:25;;;;;;;10.63;4.85;;;13.00;63.70;;;;;;4962850;28;20043;-86
2022/03/26 08:58:53;;;;;;;12.50;6.28;;;13.10;63.60;;;;;;4972161;28;20097;-83
2022/03/26 09:01:20;;;;;;;10.35;5.20;;;13.10;63.50;;;;;;5004751;28;20136;-87
2022/03/26 09:03:50;;;;;;;11.68;5.60;;;13.20;63.50;;;;;;4994222;28;20489;-82
2022/03/26 09:06:24;;;;;;;9.45;4.75;;;13.30;63.40;;;;;;5010990;28;20050;-83
2022/03/26 09:08:51;;;;;;;9.35;4.35;;;13.30;63.30;;;;;;4999852;28;20038;-80
2022/03/26 09:11:19;;;;;;;10.45;4.82;;;13.40;63.40;;;;;;5008690;28;20092;-84
2022/03/26 09:13:46;;;;;;;9.05;4.10;;;13.40;63.30;;;;;;4982101;28;20070;-87
2022/03/26 09:16:17;;;;;;;9.25;4.28;;;13.40;63.20;;;;;;4992617;28;20043;-87
2022/03/26 09:18:44;;;;;;;11.27;4.60;;;13.50;63.10;;;;;;4980880;28;20054;-86
2022/03/26 09:21:11;;;;;;;13.05;5.05;;;13.60;63.00;;;;;;5000832;28;20050;-80
2022/03/26 09:23:38;;;;;;;8.88;4.45;;;13.70;62.90;;;;;;4977776;28;20081;-80
2022/03/26 09:26:10;;;;;;;8.88;4.82;;;13.70;62.70;;;;;;4992009;28;20431;-80
2022/03/26 09:28:37;;;;;;;10.85;4.80;;;13.80;62.70;;;;;;4993551;28;20046;-80
2022/03/26 09:31:04;;;;;;;9.02;4.18;;;13.80;62.70;;;;;;4978850;28;20046;-86
2022/03/26 09:33:32;;;;;;;10.40;4.80;;;13.90;62.80;;;;;;4997039;28;20490;-85
2022/03/26 09:36:28;;;;;;;12.75;5.85;;;13.90;62.70;;;;;;4983917;28;20050;-86
2022/03/26 09:43:07;;;;;;;11.60;4.82;;;14.00;62.50;;;;;;4915564;29;20044;-87
2022/03/26 09:45:41;;;;;;;8.70;3.97;;;14.10;62.60;;;;;;4904642;29;20055;-80
2022/03/26 09:48:15;;;;;;;10.38;4.78;;;14.20;62.50;;;;;;4915311;29;20052;-86
2022/03/26 09:53:54;;;;;;;6.60;3.80;;;14.30;62.40;;;;;;4924886;29;20048;-90
2022/03/26 09:56:23;;;;;;;7.78;4.15;;;14.30;62.40;;;;;;4896947;29;20048;-86
2022/03/26 09:58:56;;;;;;;8.40;3.67;;;14.40;62.30;;;;;;4911388;29;20097;-86
2022/03/26 10:01:35;;;;;;;7.70;3.83;;;14.50;62.30;;;;;;4907259;29;20263;-84
2022/03/26 10:04:15;;;;;;;6.18;3.13;;;14.50;62.20;;;;;;4898550;29;20082;-88
2022/03/26 10:06:49;;;;;;;5.95;2.80;;;14.50;62.20;;;;;;4902280;29;20048;-83
2022/03/26 10:09:37;;;;;;;5.07;3.08;;;14.60;62.20;;;;;;4910585;28;20056;-81
2022/03/26 10:12:16;;;;;;;6.20;3.47;;;14.70;62.10;;;;;;5013887;28;20089;-84
2022/03/26 10:14:51;;;;;;;8.07;3.65;;;14.70;62.00;;;;;;5003534;28;20490;-83
2022/03/26 10:17:41;;;;;;;6.55;3.28;;;14.80;61.80;;;;;;4978194;28;20042;-83
2022/03/26 10:20:12;;;;;;;4.97;2.83;;;14.90;61.60;;;;;;5008020;28;20502;-84
2022/03/26 10:22:46;;;;;;;5.40;3.33;;;14.90;61.50;;;;;;5005191;28;20046;-83
2022/03/26 10:25:20;;;;;;;6.93;3.65;;;14.90;61.30;;;;;;4977698;28;20526;-84
2022/03/26 10:27:56;;;;;;;8.70;4.07;;;15.00;61.10;;;;;;4996929;28;20130;-86
2022/03/26 10:33:24;;;;;;;7.40;2.97;;;15.10;60.90;;;;;;5012875;28;20042;-88
2022/03/26 10:35:56;;;;;;;8.00;3.97;;;15.10;60.90;;;;;;4994768;28;20608;-87
2022/03/26 10:38:37;;;;;;;5.45;2.25;;;15.10;60.70;;;;;;4996161;28;20145;-87
2022/03/26 10:41:07;;;;;;;4.93;2.53;;;15.10;60.60;;;;;;5003615;28;20045;-85
2022/03/26 10:43:37;;;;;;;4.20;2.08;;;15.10;60.60;;;;;;4994941;28;20128;-83
2022/03/26 10:46:04;;;;;;;3.55;1.70;;;15.10;60.50;;;;;;5010120;28;20046;-81
2022/03/26 10:48:33;;;;;;;4.55;1.88;;;15.20;60.40;;;;;;4995250;28;20053;-82
2022/03/26 10:51:06;;;;;;;4.45;2.35;;;15.30;60.20;;;;;;4996045;28;20060;-84
2022/03/26 10:53:40;;;;;;;3.47;1.60;;;15.30;59.90;;;;;;5013734;28;20056;-85
2022/03/26 10:56:09;;;;;;;5.40;2.60;;;15.30;59.80;;;;;;5003756;28;20049;-84
2022/03/26 10:58:39;;;;;;;5.90;2.63;;;15.40;59.60;;;;;;4970612;28;20057;-87
2022/03/26 11:01:06;;;;;;;4.65;1.90;;;15.40;59.40;;;;;;4995165;28;20053;-85
2022/03/26 11:03:35;;;;;;;3.40;1.85;;;15.50;59.20;;;;;;4984216;28;20072;-89
2022/03/26 11:06:08;;;;;;;4.72;1.92;;;15.60;58.80;;;;;;5006013;28;20085;-89
2022/03/26 11:08:36;;;;;;;;;;;15.50;58.50;;;;;;5008770;28;20145;-82
2022/03/26 11:11:08;;;;;;;5.60;2.53;;;15.50;58.40;;;;;;4983610;28;19976;-83
2022/03/26 11:13:40;;;;;;;6.00;2.30;;;15.60;58.20;;;;;;5000204;28;20054;-83
2022/03/26 11:16:20;;;;;;;7.00;3.28;;;15.70;58.20;;;;;;4996837;28;20038;-80
2022/03/26 11:19:37;;;;;;;7.43;3.45;;;15.70;57.90;;;;;;4999711;28;20042;-82
2022/03/26 11:22:34;;;;;;;9.05;3.78;;;15.80;57.50;;;;;;4914397;29;20054;-83
2022/03/26 11:25:37;;;;;;;9.55;3.83;;;15.90;57.00;;;;;;4989177;28;20120;-82
2022/03/26 11:28:20;;;;;;;8.90;3.92;;;15.90;56.60;;;;;;4996258;28;20513;-81
2022/03/26 11:31:11;;;;;;;7.78;4.15;;;15.90;56.40;;;;;;4983040;28;20038;-80
2022/03/26 11:33:38;;;;;;;8.93;4.57;;;16.00;56.00;;;;;;4995217;28;20082;-85
2022/03/26 11:36:08;;;;;;;9.45;4.05;;;15.90;56.00;;;;;;4975312;28;20133;-84
2022/03/26 11:38:37;;;;;;;11.23;5.00;;;16.00;55.80;;;;;;4979453;28;20057;-82
2022/03/26 11:41:06;;;;;;;9.77;5.32;;;16.10;55.60;;;;;;4997964;28;20065;-83
2022/03/26 11:43:43;;;;;;;8.82;4.30;;;16.20;55.40;;;;;;4992438;28;20098;-83
2022/03/26 11:52:13;;;;;;;9.43;3.90;;;16.20;55.30;;;;;;4997339;28;20034;-82
2022/03/26 11:54:41;;;;;;;8.05;3.75;;;16.30;55.30;;;;;;5017501;28;20084;-82
2022/03/26 11:57:23;;;;;;;9.27;3.95;;;16.30;55.30;;;;;;4997639;28;20038;-82
2022/03/26 11:59:52;;;;;;;5.97;3.10;;;16.30;55.10;;;;;;5009407;28;20145;-84
2022/03/26 12:02:25;;;;;;;9.65;3.60;;;16.30;55.10;;;;;;4992670;28;20104;-83
2022/03/26 12:04:56;;;;;;;9.13;3.30;;;16.30;54.90;;;;;;4979454;28;20116;-86
2022/03/26 12:07:28;;;;;;;8.38;3.63;;;16.40;54.80;;;;;;4989070;28;20800;-81
2022/03/26 12:10:11;;;;;;;5.85;2.83;;;16.40;54.60;;;;;;4990492;28;20042;-81
2022/03/26 12:13:00;;;;;;;4.97;2.60;;;16.40;54.30;;;;;;4978863;28;20137;-85
2022/03/26 12:15:33;;;;;;;6.32;2.75;;;16.40;54.30;;;;;;4998787;28;20104;-84
2022/03/26 12:18:10;;;;;;;6.28;3.10;;;16.40;54.30;;;;;;4990809;28;20050;-85
2022/03/26 12:20:42;;;;;;;7.05;3.38;;;16.50;54.00;;;;;;5007505;28;20084;-84
2022/03/26 12:23:13;;;;;;;5.65;2.92;;;16.40;54.00;;;;;;5008559;28;20057;-83
2022/03/26 12:25:49;;;;;;;6.40;3.08;;;16.40;53.90;;;;;;5023860;28;20038;-84
2022/03/26 12:28:38;;;;;;;6.05;2.90;;;16.50;53.60;;;;;;4997363;28;20042;-85
2022/03/26 12:31:07;;;;;;;4.60;2.60;;;16.60;53.50;;;;;;4981196;28;20150;-84
2022/03/26 12:33:49;;;;;;;6.22;2.95;;;16.60;53.50;;;;;;4996858;28;20056;-83
2022/03/26 12:36:19;;;;;;;7.47;2.20;;;16.70;53.10;;;;;;5012913;28;20042;-84
2022/03/26 12:38:51;;;;;;;6.82;2.80;;;16.70;53.10;;;;;;4996870;28;20320;-84
2022/03/26 12:41:19;;;;;;;7.65;3.13;;;16.80;52.80;;;;;;4994073;28;20049;-83
2022/03/26 12:43:57;;;;;;;9.98;3.40;;;16.80;52.80;;;;;;5013475;28;20068;-82
2022/03/26 12:46:35;;;;;;;7.88;3.10;;;16.90;52.80;;;;;;4996776;28;20052;-84
2022/03/26 12:49:19;;;;;;;8.10;2.88;;;16.90;52.60;;;;;;4997932;28;20142;-86
2022/03/26 12:51:51;;;;;;;7.20;3.00;;;16.90;52.50;;;;;;4987912;28;20174;-86
2022/03/26 12:54:27;;;;;;;7.50;3.40;;;16.90;52.40;;;;;;4998494;28;20038;-87
2022/03/26 12:56:54;;;;;;;8.75;4.30;;;16.90;52.30;;;;;;4995871;28;20060;-85
2022/03/26 12:59:22;;;;;;;7.63;3.67;;;16.90;52.40;;;;;;4973216;28;20080;-83
2022/03/26 13:01:57;;;;;;;5.50;2.80;;;16.90;52.20;;;;;;4981966;28;20047;-83
2022/03/26 13:04:24;;;;;;;8.30;2.70;;;17.00;52.10;;;;;;4988213;28;20552;-84
2022/03/26 13:06:58;;;;;;;6.63;3.03;;;17.00;51.90;;;;;;4994269;28;20518;-83
2022/03/26 13:09:30;;;;;;;5.82;2.47;;;17.10;51.80;;;;;;4945464;28;20046;-82
2022/03/26 13:11:57;;;;;;;6.83;2.93;;;17.10;51.90;;;;;;4977934;28;20053;-82
2022/03/26 13:14:24;;;;;;;8.57;3.83;;;17.10;51.60;;;;;;4944794;28;20066;-83
2022/03/26 13:16:52;;;;;;;7.55;3.92;;;17.10;51.40;;;;;;4992528;28;20047;-86
2022/03/26 13:19:21;;;;;;;7.90;3.70;;;17.10;51.20;;;;;;4974289;28;20065;-82
2022/03/26 13:21:50;;;;;;;7.53;3.92;;;17.10;51.90;;;;;;4952642;28;20066;-84